Chicago, Illinois
Current Conditions -  °F | °C
As of 10:53 AM on Saturday 25 Oct 2014 (Local Time) from KMDW Reporting Station
Few Clouds Few Clouds  
Wind Chill: 19°   Ceiling: Unl
Heat Index: 19°   Visibility: 10mi
Dew Point: 11°   Wind: 13mph
Humidity: 57%   Direction: 310°NW
Pressure: 29.95"   Gusts: NA
Location:  41.88°N, 87.63°W
Report Text: KMDW 251553Z 31011KT 10SM FEW100 FEW250 19/11 A2995 RMK AO2 SLP136 T01940106
Loading
Personal Weather Stations






























Interactive Weather Map New forecast layout! Learn more

10-Day Weather Forecast

Advertisements
Track Severe Weather on mobile